Time;durP1;ratioP1;P1;durP2;ratioP2;P2;SDS_P1;SDS_P2;PMS_P1;PMS_P2;Temp;Humidity;BMP_temperature;BMP_pressure;BME280_temperature;BME280_humidity;BME280_pressure;Samples;Min_cycle;Max_cycle;Signal;HPM_P1;HPM_P2
2023/06/10 00:01:24;;;;;;;13.60;9.30;;;;;;;22.60;41.75;100052.10;108114;1288;21989;-61
2023/06/10 00:03:51;;;;;;;13.80;8.40;;;;;;;22.55;41.90;100056.36;108095;1285;22858;-62
2023/06/10 00:06:17;;;;;;;16.40;8.80;;;;;;;22.50;42.10;100057.92;108117;1277;21989;-61
2023/06/10 00:08:43;;;;;;;16.60;9.10;;;;;;;22.44;42.02;100054.91;108112;1288;22029;-64
2023/06/10 00:11:10;;;;;;;11.90;8.20;;;;;;;22.37;42.15;100051.59;108155;1288;22606;-65
2023/06/10 00:13:36;;;;;;;15.40;9.20;;;;;;;22.31;42.13;100052.00;108142;1285;21959;-64
2023/06/10 00:16:03;;;;;;;13.50;8.30;;;;;;;22.25;42.33;100052.03;108115;1284;22029;-61
2023/06/10 00:18:31;;;;;;;14.20;8.80;;;;;;;22.21;42.30;100047.83;108212;1288;21987;-62
2023/06/10 00:21:03;;;;;;;17.20;8.70;;;;;;;22.17;42.35;100043.63;108080;1288;22086;-64
2023/06/10 00:23:30;;;;;;;12.40;8.30;;;;;;;22.13;42.65;100044.82;108149;1286;21987;-64
2023/06/10 00:25:59;;;;;;;11.50;8.80;;;;;;;22.09;42.58;100047.39;108142;1288;21987;-61
2023/06/10 00:28:25;;;;;;;14.40;8.80;;;;;;;22.05;42.60;100044.97;108095;1288;22462;-63
2023/06/10 00:30:51;;;;;;;14.30;8.00;;;;;;;22.02;42.67;100042.86;108110;1284;22004;-64
2023/06/10 00:33:17;;;;;;;12.40;7.60;;;;;;;21.99;42.73;100041.62;108107;1288;21996;-64
2023/06/10 00:35:42;;;;;;;13.70;7.60;;;;;;;21.96;42.69;100038.02;108110;1288;21989;-64
2023/06/10 00:38:08;;;;;;;11.70;7.30;;;;;;;21.95;42.93;100034.88;108100;1288;21984;-61
2023/06/10 00:40:38;;;;;;;12.30;8.40;;;;;;;21.94;42.88;100033.89;108128;1283;22141;-64
2023/06/10 00:43:04;;;;;;;;;;;;;;;21.93;42.98;100035.05;108125;1280;21971;-64
2023/06/10 00:45:29;;;;;;;11.40;7.50;;;;;;;21.91;43.00;100035.90;108095;1283;22452;-64
2023/06/10 00:47:55;;;;;;;13.20;7.50;;;;;;;21.90;43.00;100034.01;108086;1285;21990;-64
2023/06/10 00:50:21;;;;;;;16.10;7.50;;;;;;;21.89;43.06;100033.86;108186;1288;22000;-61
2023/06/10 00:52:48;;;;;;;14.50;7.40;;;;;;;21.89;43.13;100032.11;107810;1280;22452;-61
2023/06/10 00:55:16;;;;;;;10.70;6.70;;;;;;;21.88;43.25;100027.16;108009;1284;21988;-61
2023/06/10 00:57:44;;;;;;;11.20;7.30;;;;;;;21.88;43.21;100025.55;108017;1280;22455;-61
2023/06/10 01:00:12;;;;;;;11.30;7.70;;;;;;;21.87;43.19;100026.49;108006;1280;22001;-62
2023/06/10 01:02:37;;;;;;;10.40;7.00;;;;;;;21.86;43.26;100030.69;108073;1289;22030;-64
2023/06/10 01:05:04;;;;;;;15.30;7.10;;;;;;;21.85;43.41;100032.48;107962;1284;21989;-65
2023/06/10 01:07:41;;;;;;;10.60;6.90;;;;;;;21.85;43.32;100032.88;108002;1289;22006;-61
2023/06/10 01:10:15;;;;;;;9.80;6.50;;;;;;;21.84;43.27;100031.70;107843;1289;21992;-64
2023/06/10 01:12:48;;;;;;;11.00;6.20;;;;;;;21.83;43.45;100032.30;107780;1288;22002;-64
2023/06/10 01:15:16;;;;;;;10.90;5.90;;;;;;;21.83;43.46;100033.53;107976;1288;21995;-65
2023/06/10 01:17:55;;;;;;;10.50;6.90;;;;;;;21.83;43.63;100033.36;107771;1286;22000;-61
2023/06/10 01:20:20;;;;;;;11.80;6.00;;;;;;;21.81;43.60;100031.31;108053;1283;21995;-61
2023/06/10 01:22:47;;;;;;;11.00;6.80;;;;;;;21.81;43.53;100030.64;108028;1289;22008;-61
2023/06/10 01:25:13;;;;;;;11.70;6.50;;;;;;;21.80;43.57;100029.45;107994;1283;21995;-64
2023/06/10 01:27:39;;;;;;;13.50;6.20;;;;;;;21.78;43.69;100029.23;108023;1289;22009;-64
2023/06/10 01:30:11;;;;;;;10.60;7.00;;;;;;;21.77;43.72;100028.60;107855;1289;22029;-63
2023/06/10 01:32:42;;;;;;;9.20;6.20;;;;;;;21.74;43.79;100025.02;108040;1283;23714;-61
2023/06/10 01:35:08;;;;;;;10.10;5.80;;;;;;;21.72;43.74;100029.59;107997;1283;21994;-61
2023/06/10 01:37:33;;;;;;;9.60;5.80;;;;;;;21.72;43.91;100031.95;108002;1280;21988;-64
2023/06/10 01:39:59;;;;;;;12.10;6.30;;;;;;;21.71;43.94;100030.53;107665;1284;21990;-64
2023/06/10 01:42:25;;;;;;;12.10;5.30;;;;;;;21.72;43.94;100028.89;107843;1286;22005;-64
2023/06/10 01:44:51;;;;;;;11.90;6.70;;;;;;;21.71;44.08;100029.84;107915;1281;21982;-61
2023/06/10 01:47:17;;;;;;;11.70;5.80;;;;;;;21.69;43.95;100032.62;108027;1280;22052;-64
2023/06/10 01:49:43;;;;;;;9.70;5.60;;;;;;;21.69;44.05;100032.45;107985;1280;22007;-61
2023/06/10 01:52:08;;;;;;;7.90;5.00;;;;;;;21.70;44.01;100035.41;108005;1283;21992;-64
2023/06/10 01:54:34;;;;;;;9.50;5.30;;;;;;;21.73;44.09;100036.48;108031;1288;21986;-60
2023/06/10 01:57:01;;;;;;;9.50;5.90;;;;;;;21.74;44.15;100037.16;108128;1288;21991;-61
2023/06/10 01:59:27;;;;;;;10.40;5.60;;;;;;;21.74;44.19;100036.60;108097;1287;21992;-64
2023/06/10 02:01:52;;;;;;;14.00;5.70;;;;;;;21.76;44.06;100036.82;108094;1284;22044;-64
2023/06/10 02:04:18;;;;;;;14.60;6.70;;;;;;;21.77;44.13;100036.26;108108;1287;21993;-60
2023/06/10 02:06:45;;;;;;;11.00;5.60;;;;;;;21.77;44.25;100036.27;107366;1284;1002481;-61
2023/06/10 02:09:11;;;;;;;8.10;5.00;;;;;;;21.76;44.18;100043.78;108120;1288;22022;-63
2023/06/10 02:11:36;;;;;;;11.20;5.80;;;;;;;21.76;44.30;100043.65;108163;1288;21998;-63
2023/06/10 02:14:02;;;;;;;12.80;5.80;;;;;;;21.77;44.14;100047.15;108104;1284;21994;-64
2023/06/10 02:16:28;;;;;;;12.80;5.20;;;;;;;21.78;44.17;100046.55;108248;1278;21994;-60
2023/06/10 02:18:55;;;;;;;7.20;5.10;;;;;;;21.80;44.37;100048.39;108095;1287;21992;-60
2023/06/10 02:21:21;;;;;;;9.40;5.00;;;;;;;21.82;44.42;100048.05;108102;1283;22002;-63
2023/06/10 02:23:47;;;;;;;10.90;5.50;;;;;;;21.84;44.33;100048.80;108148;1280;21985;-63
2023/06/10 02:26:12;;;;;;;12.00;5.60;;;;;;;21.86;44.47;100050.10;108105;1280;21989;-60
2023/06/10 02:28:38;;;;;;;15.10;5.60;;;;;;;21.89;44.40;100049.08;108087;1287;21987;-60
2023/06/10 02:31:03;;;;;;;9.80;5.70;;;;;;;21.92;44.47;100048.68;108109;1280;23054;-63
2023/06/10 02:33:29;;;;;;;11.30;5.00;;;;;;;21.95;44.63;100050.58;108111;1288;22009;-61
2023/06/10 02:35:55;;;;;;;11.30;5.10;;;;;;;21.99;44.62;100053.39;108125;1281;22068;-61
2023/06/10 02:38:21;;;;;;;11.50;5.50;;;;;;;22.04;44.61;100052.02;108093;1283;21996;-62
2023/06/10 02:40:47;;;;;;;16.60;5.30;;;;;;;22.08;44.63;100054.59;108121;1286;21992;-62
2023/06/10 02:43:12;;;;;;;21.10;5.50;;;;;;;22.15;44.54;100050.55;108172;1277;21992;-62
2023/06/10 02:45:38;;;;;;;9.90;5.60;;;;;;;22.31;44.52;100049.91;108124;1282;21998;-63
2023/06/10 02:48:03;;;;;;;8.80;5.30;;;;;;;22.39;44.33;100049.54;108086;1280;21990;-59
2023/06/10 02:50:29;;;;;;;12.60;5.40;;;;;;;22.40;44.29;100053.92;108125;1277;21995;-62
2023/06/10 02:52:55;;;;;;;10.00;4.70;;;;;;;22.39;44.37;100056.83;108101;1283;21994;-60
2023/06/10 02:55:21;;;;;;;9.60;4.90;;;;;;;22.39;44.39;100058.11;108098;1279;22223;-59
2023/06/10 02:57:46;;;;;;;16.90;5.50;;;;;;;22.40;44.38;100058.20;108136;1277;22006;-59
2023/06/10 03:00:13;;;;;;;16.60;6.20;;;;;;;22.43;44.47;100060.52;108156;1287;21999;-60
2023/06/10 03:02:39;;;;;;;11.50;6.00;;;;;;;22.46;44.56;100059.80;108161;1277;21988;-59
2023/06/10 03:05:09;;;;;;;10.80;5.30;;;;;;;22.49;44.58;100061.02;108085;1277;21983;-59
2023/06/10 03:07:36;;;;;;;13.90;5.70;;;;;;;22.52;44.64;100063.84;108240;1283;23715;-59
2023/06/10 03:10:03;;;;;;;12.40;5.60;;;;;;;22.57;44.48;100062.11;108143;1288;22017;-59
2023/06/10 03:12:28;;;;;;;10.80;5.00;;;;;;;22.61;44.64;100063.30;108108;1284;22166;-63
2023/06/10 03:14:54;;;;;;;11.10;4.60;;;;;;;22.66;44.67;100064.23;108160;1283;21999;-59
2023/06/10 03:17:20;;;;;;;10.70;5.30;;;;;;;22.70;44.64;100065.15;107449;1288;1002397;-63
2023/06/10 03:19:45;;;;;;;10.00;5.10;;;;;;;22.76;44.80;100068.36;108138;1280;21989;-60
2023/06/10 03:22:13;;;;;;;11.70;5.40;;;;;;;22.80;44.87;100069.33;108100;1283;21991;-60
2023/06/10 03:24:39;;;;;;;9.80;5.20;;;;;;;22.87;44.85;100067.48;108154;1283;21994;-59
2023/06/10 03:27:09;;;;;;;9.60;4.80;;;;;;;22.96;44.80;100063.24;108101;1287;21997;-59
2023/06/10 03:29:35;;;;;;;12.10;5.80;;;;;;;23.06;44.84;100061.83;108141;1278;21996;-63
2023/06/10 03:32:01;;;;;;;9.80;4.80;;;;;;;23.14;44.76;100059.83;108099;1287;22004;-59
2023/06/10 03:34:27;;;;;;;14.40;5.20;;;;;;;23.23;44.79;100058.72;108154;1287;21989;-65
2023/06/10 03:36:53;;;;;;;17.70;5.30;;;;;;;23.33;44.72;100056.73;108120;1283;21989;-64
2023/06/10 03:39:19;;;;;;;12.20;5.40;;;;;;;23.45;44.71;100056.94;108095;1278;21995;-65
2023/06/10 03:41:45;;;;;;;12.70;4.80;;;;;;;23.56;44.48;100055.63;108107;1283;22007;-59
2023/06/10 03:44:10;;;;;;;10.10;5.20;;;;;;;23.66;44.29;100054.73;108113;1288;21999;-65
2023/06/10 03:46:36;;;;;;;19.20;5.50;;;;;;;23.75;44.34;100056.23;108140;1288;21986;-61
2023/06/10 03:49:03;;;;;;;11.40;5.30;;;;;;;23.85;44.15;100056.92;108107;1288;21989;-65
2023/06/10 03:51:29;;;;;;;13.80;4.90;;;;;;;23.94;43.98;100059.70;107898;1279;21997;-64
2023/06/10 03:53:55;;;;;;;20.40;5.80;;;;;;;24.04;43.77;100057.79;108152;1281;22660;-59
2023/06/10 03:56:21;;;;;;;14.10;4.80;;;;;;;24.14;43.59;100056.00;108032;1284;21989;-59
2023/06/10 03:58:46;;;;;;;10.40;4.50;;;;;;;24.23;43.60;100054.21;108062;1289;21956;-59
2023/06/10 04:01:13;;;;;;;11.50;4.60;;;;;;;24.34;43.46;100055.95;108059;1289;21987;-64
2023/06/10 04:03:39;;;;;;;27.80;6.20;;;;;;;24.44;43.44;100054.11;108060;1283;21992;-60
2023/06/10 04:06:05;;;;;;;14.00;6.10;;;;;;;24.57;43.51;100052.78;108074;1278;21995;-59
2023/06/10 04:08:32;;;;;;;13.70;5.40;;;;;;;24.75;43.72;100056.22;107992;1289;21992;-59
2023/06/10 04:10:58;;;;;;;25.00;6.50;;;;;;;24.95;43.46;100051.35;108049;1279;22047;-59
2023/06/10 04:13:24;;;;;;;21.20;6.30;;;;;;;25.18;43.17;100047.34;108081;1287;21999;-59
2023/06/10 04:15:50;;;;;;;15.00;7.70;;;;;;;25.41;42.99;100049.68;108021;1289;22000;-66
2023/06/10 04:18:16;;;;;;;16.30;6.20;;;;;;;25.59;42.65;100049.73;108036;1283;21989;-67
2023/06/10 04:20:44;;;;;;;13.00;7.40;;;;;;;25.74;42.53;100047.61;108020;1278;22047;-59
2023/06/10 04:23:10;;;;;;;11.80;6.10;;;;;;;25.88;42.50;100044.14;108069;1289;21994;-59
2023/06/10 04:25:36;;;;;;;15.20;10.60;;;;;;;26.03;42.22;100042.22;108033;1289;21995;-59
2023/06/10 04:28:02;;;;;;;21.70;13.40;;;;;;;26.16;42.02;100042.94;107999;1283;21995;-59
2023/06/10 04:30:27;;;;;;;17.70;13.10;;;;;;;26.29;41.87;100042.97;108021;1284;21999;-66
2023/06/10 04:32:54;;;;;;;26.60;17.30;;;;;;;26.42;41.68;100041.49;108034;1289;21990;-65
2023/06/10 04:35:19;;;;;;;20.10;13.50;;;;;;;26.56;41.55;100046.24;108053;1289;21984;-60
2023/06/10 04:37:45;;;;;;;36.60;24.10;;;;;;;26.70;41.32;100043.27;108025;1289;22456;-65
2023/06/10 04:40:11;;;;;;;38.50;23.30;;;;;;;26.85;41.20;100038.65;108037;1280;21948;-59
2023/06/10 04:42:36;;;;;;;32.40;21.10;;;;;;;27.00;41.06;100038.05;108050;1280;22576;-67
2023/06/10 04:45:03;;;;;;;49.90;31.30;;;;;;;27.15;40.92;100036.92;108048;1283;21999;-60
2023/06/10 04:47:32;;;;;;;55.30;35.20;;;;;;;27.30;40.61;100034.91;108068;1282;21994;-59
2023/06/10 04:50:02;;;;;;;39.10;26.40;;;;;;;27.45;40.57;100032.75;108213;1280;21996;-67
2023/06/10 04:52:29;;;;;;;58.30;36.30;;;;;;;27.62;40.42;100029.83;108180;1288;22746;-60
2023/06/10 04:54:54;;;;;;;55.00;39.50;;;;;;;27.77;39.96;100027.67;108170;1280;22095;-60
2023/06/10 04:57:21;;;;;;;57.70;42.80;;;;;;;27.94;39.79;100021.18;108115;1280;22001;-70
2023/06/10 04:59:47;;;;;;;70.60;47.30;;;;;;;28.08;39.31;100016.50;108168;1287;22008;-69
2023/06/10 05:02:13;;;;;;;72.80;46.40;;;;;;;28.20;39.08;100014.62;108183;1279;21991;-60
2023/06/10 05:04:40;;;;;;;78.20;55.10;;;;;;;28.35;38.91;100008.21;108102;1283;22147;-68
2023/06/10 05:07:05;;;;;;;74.30;56.00;;;;;;;28.50;38.75;100011.89;108080;1279;22007;-60
2023/06/10 05:09:32;;;;;;;105.40;68.80;;;;;;;28.63;38.47;100008.83;108099;1283;21992;-69
2023/06/10 05:11:58;;;;;;;99.60;70.00;;;;;;;28.78;38.35;100008.95;108093;1286;24396;-60
2023/06/10 05:14:24;;;;;;;96.90;69.50;;;;;;;28.84;38.14;100009.27;108088;1288;22079;-68
2023/06/10 05:16:49;;;;;;;105.20;71.60;;;;;;;28.98;38.01;100009.04;108107;1284;21997;-60
2023/06/10 05:19:18;;;;;;;126.80;83.70;;;;;;;29.15;37.92;100009.15;108082;1283;21992;-67
2023/06/10 05:21:44;;;;;;;113.20;77.70;;;;;;;29.35;37.60;100009.84;108098;1288;22944;-69
2023/06/10 05:24:10;;;;;;;137.40;92.50;;;;;;;29.57;37.41;100007.86;108183;1283;21992;-66
2023/06/10 05:26:38;;;;;;;155.90;107.20;;;;;;;29.84;37.34;100008.64;108122;1288;22452;-66
2023/06/10 05:29:09;;;;;;;153.60;93.60;;;;;;;30.09;37.01;100008.86;108165;1288;22002;-59
2023/06/10 05:31:34;;;;;;;183.70;128.50;;;;;;;30.27;36.40;100005.09;108172;1286;22168;-59
2023/06/10 05:34:00;;;;;;;199.10;133.20;;;;;;;30.34;36.04;100003.02;108129;1288;21983;-65
2023/06/10 05:36:26;;;;;;;200.40;135.40;;;;;;;30.34;35.82;100003.02;107888;1288;21986;-60
2023/06/10 05:38:52;;;;;;;231.40;164.50;;;;;;;30.34;35.79;99999.66;108139;1283;21992;-67
2023/06/10 05:41:17;;;;;;;192.20;134.40;;;;;;;30.36;35.77;99995.88;108090;1288;21997;-59
2023/06/10 05:43:43;;;;;;;184.70;129.90;;;;;;;30.34;35.69;99996.63;108144;1288;21990;-67
2023/06/10 05:46:09;;;;;;;218.50;157.50;;;;;;;30.36;35.70;99995.73;108167;1284;23724;-59
2023/06/10 05:48:35;;;;;;;208.80;143.60;;;;;;;30.40;35.71;99996.18;108249;1288;21989;-59
2023/06/10 05:51:01;;;;;;;228.70;155.30;;;;;;;30.43;35.68;99996.23;108231;1286;21992;-67
2023/06/10 05:53:26;;;;;;;230.30;157.50;;;;;;;30.48;35.80;99997.23;108190;1284;22001;-60
2023/06/10 05:55:53;;;;;;;237.90;158.00;;;;;;;30.52;35.58;99997.89;108294;1288;21989;-69
2023/06/10 05:58:19;;;;;;;239.90;175.00;;;;;;;30.64;35.56;99996.88;110003;1283;21913;-70
2023/06/10 06:00:46;;;;;;;257.40;175.50;;;;;;;30.78;35.45;99995.08;110030;1277;22284;-61
2023/06/10 06:03:11;;;;;;;257.70;180.30;;;;;;;30.90;35.25;99993.65;110039;1283;21839;-68
2023/06/10 06:05:38;;;;;;;286.10;192.80;;;;;;;31.02;35.26;99992.98;108711;1286;21998;-61
2023/06/10 06:08:04;;;;;;;270.40;193.40;;;;;;;31.19;35.29;99990.30;107984;1281;21997;-60
2023/06/10 06:10:30;;;;;;;287.30;200.90;;;;;;;31.39;35.25;99984.67;108075;1286;21990;-68
2023/06/10 06:12:56;;;;;;;315.60;228.80;;;;;;;31.61;34.79;99983.13;107934;1288;23657;-67
2023/06/10 06:15:22;;;;;;;330.00;234.00;;;;;;;31.84;34.61;99977.77;108108;1283;22048;-67
2023/06/10 06:17:48;;;;;;;341.10;249.40;;;;;;;32.06;34.34;99978.61;108103;1288;22014;-60
2023/06/10 06:20:13;;;;;;;343.30;264.20;;;;;;;32.25;34.00;99981.11;108052;1287;22457;-61
2023/06/10 06:22:39;;;;;;;358.20;267.60;;;;;;;32.38;33.86;99976.64;108136;1286;21994;-68
2023/06/10 06:25:05;;;;;;;395.00;304.70;;;;;;;32.53;33.54;99971.67;108105;1284;21990;-60
2023/06/10 06:27:31;;;;;;;389.70;310.30;;;;;;;32.72;33.30;99969.59;108150;1287;21991;-59
2023/06/10 06:29:57;;;;;;;403.30;325.30;;;;;;;32.98;32.98;99971.38;108072;1283;21997;-66
2023/06/10 06:32:24;;;;;;;420.50;339.30;;;;;;;33.26;32.98;99965.63;108146;1288;22001;-64
2023/06/10 06:34:53;;;;;;;438.80;376.90;;;;;;;33.53;32.60;99962.38;108121;1288;22247;-64
2023/06/10 06:37:23;;;;;;;422.10;354.80;;;;;;;33.68;32.14;99959.52;108148;1280;22000;-61
2023/06/10 06:39:53;;;;;;;444.70;369.70;;;;;;;33.83;32.16;99960.91;108122;1288;23054;-60
2023/06/10 06:42:19;;;;;;;490.60;413.00;;;;;;;34.02;31.83;99958.00;108129;1283;22012;-67
2023/06/10 06:44:44;;;;;;;541.40;471.00;;;;;;;34.20;31.61;99955.16;108129;1286;22804;-60
2023/06/10 06:47:10;;;;;;;518.50;454.40;;;;;;;34.38;31.40;99954.11;108085;1280;21999;-60
2023/06/10 06:49:36;;;;;;;532.70;474.00;;;;;;;34.53;31.42;99951.94;108185;1288;21988;-61
2023/06/10 06:52:02;;;;;;;550.50;490.80;;;;;;;34.72;31.38;99950.79;109020;1288;21859;-61
2023/06/10 06:54:27;;;;;;;590.60;527.10;;;;;;;34.93;31.04;99952.23;110031;1280;21927;-62
2023/06/10 06:56:53;;;;;;;606.20;540.30;;;;;;;35.11;30.82;99948.02;108137;1288;22447;-60
2023/06/10 06:59:19;;;;;;;654.40;584.00;;;;;;;35.28;30.63;99948.33;108124;1281;23712;-62
2023/06/10 07:01:46;;;;;;;657.60;587.00;;;;;;;35.40;30.39;99945.88;108119;1288;21986;-67
2023/06/10 07:04:12;;;;;;;637.00;568.20;;;;;;;35.51;29.98;99942.42;108123;1283;22451;-60
2023/06/10 07:06:38;;;;;;;669.40;599.70;;;;;;;35.60;30.20;99941.39;108142;1286;22005;-67
2023/06/10 07:09:04;;;;;;;684.50;610.90;;;;;;;35.77;29.89;99940.89;108109;1284;22045;-61
2023/06/10 07:11:30;;;;;;;716.70;639.40;;;;;;;35.96;29.88;99940.79;107996;1288;137408;-62
2023/06/10 07:13:56;;;;;;;714.70;637.80;;;;;;;36.18;29.47;99939.81;108115;1280;22008;-67
2023/06/10 07:16:22;;;;;;;721.80;642.60;;;;;;;36.39;29.38;99938.95;108095;1283;21997;-67
2023/06/10 07:18:47;;;;;;;793.50;707.10;;;;;;;36.56;28.98;99938.55;108134;1281;23618;-61
2023/06/10 07:21:13;;;;;;;787.30;700.50;;;;;;;36.70;28.99;99934.55;108110;1284;22190;-62
2023/06/10 07:23:43;;;;;;;770.00;686.70;;;;;;;36.86;28.74;99931.35;108106;1287;22010;-67
2023/06/10 07:26:10;;;;;;;848.70;758.50;;;;;;;37.03;28.71;99934.61;108200;1285;24320;-62
2023/06/10 07:28:37;;;;;;;833.90;742.90;;;;;;;37.20;28.59;99934.86;108127;1278;22089;-68
2023/06/10 07:31:03;;;;;;;843.30;750.80;;;;;;;37.36;28.39;99937.57;108087;1288;21991;-61
2023/06/10 07:33:29;;;;;;;849.30;756.60;;;;;;;37.48;28.23;99937.02;108078;1287;21991;-68
2023/06/10 07:35:55;;;;;;;857.10;754.50;;;;;;;37.58;27.94;99936.73;107913;1288;23704;-61
2023/06/10 07:38:20;;;;;;;879.50;775.10;;;;;;;37.73;27.79;99938.27;108098;1287;22024;-67
2023/06/10 07:40:46;;;;;;;899.60;800.90;;;;;;;37.84;27.57;99936.73;108085;1283;21992;-61
2023/06/10 07:43:12;;;;;;;897.90;786.30;;;;;;;37.93;27.25;99932.20;108115;1288;21984;-66
2023/06/10 07:45:40;;;;;;;914.80;802.20;;;;;;;38.07;27.04;99931.11;108075;1288;23694;-66
2023/06/10 07:48:05;;;;;;;934.30;811.20;;;;;;;38.32;27.11;99933.17;108071;1283;21995;-61
2023/06/10 07:50:31;;;;;;;984.20;821.90;;;;;;;38.51;27.11;99934.40;108084;1280;21982;-61
2023/06/10 07:52:57;;;;;;;920.00;805.50;;;;;;;38.68;26.87;99934.58;108112;1283;21996;-67
2023/06/10 07:55:23;;;;;;;962.30;819.00;;;;;;;38.87;26.73;99933.77;107904;1288;23653;-68
2023/06/10 07:57:49;;;;;;;1054.20;861.40;;;;;;;39.06;26.75;99927.20;107953;1288;24326;-62
2023/06/10 08:00:15;;;;;;;1023.00;857.90;;;;;;;39.26;26.71;99928.34;108155;1283;22021;-62
2023/06/10 08:02:41;;;;;;;1011.10;851.20;;;;;;;39.45;26.22;99927.03;108144;1277;21989;-61
2023/06/10 08:05:07;;;;;;;1076.60;870.20;;;;;;;39.56;26.09;99932.48;108091;1283;21991;-61
2023/06/10 08:07:33;;;;;;;1112.00;886.30;;;;;;;39.65;26.13;99930.55;108076;1288;21989;-63
2023/06/10 08:09:59;;;;;;;1165.90;918.50;;;;;;;39.76;25.63;99925.36;108131;1288;21984;-67
2023/06/10 08:12:24;;;;;;;1171.60;924.10;;;;;;;39.93;25.73;99927.83;108102;1277;21989;-63
2023/06/10 08:14:50;;;;;;;1181.10;931.60;;;;;;;40.10;25.45;99930.02;108130;1283;21984;-61
2023/06/10 08:17:15;;;;;;;1190.00;926.40;;;;;;;40.26;25.32;99924.94;108119;1277;21996;-60
2023/06/10 08:19:41;;;;;;;1139.60;910.90;;;;;;;40.44;25.30;99923.20;108204;1283;22004;-65
2023/06/10 08:22:07;;;;;;;1187.50;925.00;;;;;;;40.61;24.95;99922.90;108131;1287;21989;-61
2023/06/10 08:24:32;;;;;;;1243.50;930.10;;;;;;;40.73;24.57;99913.45;108095;1288;23754;-62
2023/06/10 08:26:58;;;;;;;1191.00;940.40;;;;;;;40.79;24.29;99920.57;108157;1277;21997;-61
2023/06/10 08:29:24;;;;;;;1157.40;929.20;;;;;;;40.84;24.20;99919.61;108205;1277;22023;-61
2023/06/10 08:31:50;;;;;;;1238.10;947.70;;;;;;;40.93;24.06;99915.29;108134;1283;22634;-68
2023/06/10 08:34:15;;;;;;;1220.70;948.70;;;;;;;41.04;24.00;99912.65;107925;1288;24454;-60
2023/06/10 08:36:41;;;;;;;1264.50;951.70;;;;;;;41.16;24.05;99910.58;108123;1280;21986;-66
2023/06/10 08:39:07;;;;;;;1211.80;957.70;;;;;;;41.18;23.75;99908.59;108081;1282;21989;-67
2023/06/10 08:41:36;;;;;;;1321.40;962.80;;;;;;;41.21;23.63;99907.89;108146;1277;22087;-59
2023/06/10 08:44:10;;;;;;;1267.00;950.90;;;;;;;41.22;23.51;99906.92;108172;1277;22019;-59
2023/06/10 08:46:36;;;;;;;1262.00;957.40;;;;;;;41.28;23.44;99891.76;108108;1288;21993;-60
2023/06/10 08:49:03;;;;;;;1326.50;974.60;;;;;;;41.40;23.22;99891.85;108118;1283;21987;-60
2023/06/10 08:51:29;;;;;;;1311.60;971.60;;;;;;;41.43;23.23;99894.02;108168;1286;23464;-66
2023/06/10 08:54:04;;;;;;;1289.40;963.70;;;;;;;41.53;23.30;99894.34;108106;1287;22637;-65
2023/06/10 08:56:29;;;;;;;1395.00;989.90;;;;;;;41.69;23.08;99888.46;108237;1288;23615;-66
2023/06/10 08:58:56;;;;;;;1319.40;980.50;;;;;;;41.81;22.81;99887.71;108186;1280;23676;-65
2023/06/10 09:01:24;;;;;;;1368.90;986.70;;;;;;;41.84;22.50;99886.25;108150;1280;22007;-66
2023/06/10 09:03:49;;;;;;;1389.30;990.00;;;;;;;41.89;22.38;99887.70;108106;1275;21982;-68
2023/06/10 09:06:15;;;;;;;1284.30;967.60;;;;;;;41.94;22.30;99886.88;107648;1282;22000;-65
2023/06/10 09:08:40;;;;;;;1370.40;988.60;;;;;;;41.96;22.32;99879.27;107882;1288;21999;-67
2023/06/10 09:11:06;;;;;;;1367.70;988.90;;;;;;;42.07;22.05;99885.55;107887;1288;21992;-64
2023/06/10 09:13:32;;;;;;;1357.30;973.20;;;;;;;42.18;21.81;99888.37;107658;1283;21986;-66
2023/06/10 09:16:00;;;;;;;1401.00;981.90;;;;;;;42.34;21.87;99882.75;107887;1284;21989;-65
2023/06/10 09:18:27;;;;;;;1375.60;997.60;;;;;;;42.54;21.79;99885.64;107885;1284;21991;-67
2023/06/10 09:20:53;;;;;;;1383.10;985.40;;;;;;;42.71;21.65;99886.77;108129;1280;22213;-66
2023/06/10 09:23:19;;;;;;;1396.50;992.40;;;;;;;42.86;21.50;99889.10;108138;1283;21985;-65
2023/06/10 09:25:44;;;;;;;1435.80;995.10;;;;;;;43.01;21.40;99888.70;108100;1288;21996;-66
2023/06/10 09:28:14;;;;;;;1439.90;996.90;;;;;;;43.16;21.19;99883.64;108081;1288;21991;-64
2023/06/10 09:30:39;;;;;;;1374.00;995.10;;;;;;;43.28;20.97;99888.20;108151;1287;22249;-64
2023/06/10 09:33:17;;;;;;;1484.20;997.10;;;;;;;43.39;20.90;99888.92;108098;1284;21986;-64
2023/06/10 09:35:47;;;;;;;1451.30;994.80;;;;;;;43.49;20.63;99885.98;108085;1288;21993;-64
2023/06/10 09:38:13;;;;;;;;;;;;;;;43.45;20.60;99884.58;108127;1277;21994;-65
2023/06/10 09:40:49;;;;;;;1410.80;992.00;;;;;;;43.47;20.52;99882.32;108097;1288;22031;-64
2023/06/10 09:43:15;;;;;;;1438.90;999.30;;;;;;;43.51;20.55;99879.55;108119;1280;23727;-64
2023/06/10 09:45:41;;;;;;;1449.90;998.40;;;;;;;43.64;20.45;99879.84;108128;1279;21988;-64
2023/06/10 09:48:07;;;;;;;1454.00;999.50;;;;;;;43.79;20.52;99873.17;108167;1277;23424;-64
2023/06/10 09:50:33;;;;;;;1501.80;999.60;;;;;;;43.95;20.44;99875.54;108214;1283;21990;-64
2023/06/10 09:53:00;;;;;;;1494.10;999.90;;;;;;;43.90;20.26;99874.17;108119;1286;22437;-64
2023/06/10 09:55:25;;;;;;;1491.80;997.10;;;;;;;43.79;20.39;99871.58;107908;1280;21989;-65
2023/06/10 09:57:53;;;;;;;1533.30;999.90;;;;;;;43.90;20.11;99871.35;107810;1284;21996;-60
2023/06/10 10:00:20;;;;;;;1523.70;999.10;;;;;;;44.12;20.15;99867.10;108040;1280;22026;-62
2023/06/10 10:02:50;;;;;;;1508.70;999.90;;;;;;;44.33;20.35;99860.14;107855;1290;22771;-61
2023/06/10 10:05:16;;;;;;;;;;;;;;;44.55;20.31;99863.93;107859;1289;22081;-62
2023/06/10 10:07:43;;;;;;;1488.00;998.10;;;;;;;44.75;20.17;99859.54;108895;1287;24327;-62
2023/06/10 10:10:09;;;;;;;1505.60;998.10;;;;;;;44.92;19.95;99858.20;107970;1280;21996;-63
2023/06/10 10:12:36;;;;;;;1507.20;999.90;;;;;;;45.06;20.15;99852.91;109974;1289;21931;-63
2023/06/10 10:15:02;;;;;;;1550.50;999.90;;;;;;;45.16;19.95;99855.73;108007;1286;21987;-62
2023/06/10 10:17:28;;;;;;;1577.50;999.90;;;;;;;45.20;19.95;99858.38;108637;1283;22001;-62
2023/06/10 10:19:55;;;;;;;1512.30;999.90;;;;;;;45.21;19.69;99847.27;107819;1289;21997;-62
2023/06/10 10:22:25;;;;;;;1568.40;999.90;;;;;;;45.25;19.76;99845.94;108118;1289;21999;-63
2023/06/10 10:24:53;;;;;;;1603.70;999.90;;;;;;;45.39;19.52;99848.36;108065;1277;21992;-62
2023/06/10 10:27:31;;;;;;;1577.90;999.90;;;;;;;45.50;19.54;99843.34;108277;1284;21987;-63
2023/06/10 10:29:58;;;;;;;1505.40;999.90;;;;;;;45.56;19.46;99843.67;108000;1288;23067;-62
2023/06/10 10:32:34;;;;;;;1626.00;999.90;;;;;;;45.62;19.38;99839.44;108043;1286;22000;-63
2023/06/10 10:35:10;;;;;;;1610.80;999.90;;;;;;;45.62;18.99;99832.55;110039;1280;21915;-63
2023/06/10 10:37:36;;;;;;;1581.60;999.90;;;;;;;45.64;18.94;99838.78;109827;1288;21983;-63
2023/06/10 10:40:02;;;;;;;1621.60;999.90;;;;;;;45.67;18.78;99831.84;108125;1277;22216;-62
2023/06/10 10:42:28;;;;;;;1647.90;999.90;;;;;;;45.68;18.68;99824.58;107851;1280;22196;-62
2023/06/10 10:44:54;;;;;;;1613.90;999.90;;;;;;;45.72;18.64;99821.04;108140;1283;23435;-63
2023/06/10 10:47:23;;;;;;;1622.10;999.90;;;;;;;45.83;18.62;99819.39;108184;1283;23644;-63
2023/06/10 10:49:50;;;;;;;1607.50;999.90;;;;;;;45.96;18.50;99817.63;107640;1280;23715;-64
2023/06/10 10:52:16;;;;;;;1602.40;999.90;;;;;;;46.00;18.47;99818.16;108177;1284;23657;-63
2023/06/10 10:54:46;;;;;;;1600.00;999.90;;;;;;;46.07;18.46;99814.48;108082;1283;21991;-63
2023/06/10 10:57:12;;;;;;;1624.40;999.90;;;;;;;46.09;18.41;99815.74;108111;1278;21989;-63